Aidamar — ICSJ — position and weather

sailwx.info

Track history (hours):
 
Tides and Currents Weather Stations Pressure Air Temp Water Temp Dewpoint Dewpoint Depression Visibility Wind Speed Wind Dir Waves Ship Positions

Aidamar

Last reported at 2014-Sep-17 22:08 UTC. Time now 2014-Sep-17 23:42 UTC.
Position N 59°33' E 021°13'.

Length 253 m; draft 7.3 m.

Type: Ship. MMSI: 247312900.

Date/timePositionNaut miles runAvg speedWind from/ knotsBaromVisibWave heightAir tempDewpointWater temp
2014-Sep-17 22:08N 59°33' E 021°13'916.1
2014-Sep-17 21:33N 59°31' E 021°31'8016.0
2014-Sep-17 16:33N 59°44' E 024°07'1716.3
2014-Sep-17 15:32N 59°52' E 024°37'1413.6
2014-Sep-17 14:28N 60°03' E 024°53'6 2.9
2014-Sep-17 12:32N 60°09' E 024°55'0 0.0
2014-Sep-17 11:28N 60°09' E 024°55'0 0.0
2014-Sep-17 10:31N 60°09' E 024°55'0 0.0
2014-Sep-17 07:08N 60°09' E 024°55'0 0.0
2014-Sep-17 05:33N 60°09' E 024°55'4 3.9
2014-Sep-17 04:34N 60°05' E 024°54'4410.7
2014-Sep-17 00:29N 59°59' E 026°20'2115.9
2014-Sep-16 23:08N 59°60' E 027°03'9113.9
2014-Sep-16 16:33N 59°56' E 030°05'3 0.3
2014-Sep-16 04:31N 59°57' E 030°12'0 0.0
2014-Sep-16 03:32N 59°57' E 030°11'8411.9
2014-Sep-15 20:28N 60°04' E 027°24'1515.2
2014-Sep-15 19:31N 59°59' E 026°58'1515.8
2014-Sep-15 18:34N 59°58' E 026°28'3216.2
2014-Sep-15 16:33N 59°48' E 025°26'1915.8
2014-Sep-15 15:23N 59°42' E 024°51'1113.1
2014-Sep-15 14:34N 59°32' E 024°44'5 2.5
2014-Sep-15 12:32N 59°27' E 024°46'0 0.0
2014-Sep-15 11:24N 59°27' E 024°46'0 0.0
2014-Sep-15 10:30N 59°27' E 024°46'0 0.0
2014-Sep-15 08:10N 59°27' E 024°46'0 0.0
2014-Sep-15 05:21N 59°27' E 024°46'7 8.2
2014-Sep-15 04:33N 59°30' E 024°34'1615.6
2014-Sep-15 03:32N 59°30' E 024°03'1616.2
2014-Sep-15 02:33N 59°30' E 023°32'1616.3
2014-Sep-15 01:33N 59°28' E 022°60'15815.8
2014-Sep-14 15:33N 57°31' E 019°38'3315.2
2014-Sep-14 13:21N 57°04' E 018°60'1315.3
2014-Sep-14 12:32N 56°54' E 018°46'3314.6
2014-Sep-14 10:15N 56°34' E 017°57'1314.6
2014-Sep-14 09:22N 56°26' E 017°39'1514.6
2014-Sep-14 08:20N 56°17' E 017°17'1814.6
2014-Sep-14 07:06N 56°06' E 016°52'1214.2
2014-Sep-14 06:16N 55°59' E 016°34'2714.3
2014-Sep-14 04:23N 55°46' E 015°53'1314.5
2014-Sep-14 03:30N 55°40' E 015°33'3214.3
2014-Sep-14 01:17N 55°25' E 014°43'5214.0
2014-Sep-13 21:33N 54°54' E 013°30'1414.6
2014-Sep-13 20:33N 54°49' E 013°06'1414.3
2014-Sep-13 19:33N 54°45' E 012°43'1414.0
2014-Sep-13 18:33N 54°37' E 012°23'1313.3
2014-Sep-13 17:33N 54°25' E 012°11'1212.5
2014-Sep-13 16:33N 54°13' E 012°05'3 2.6
2014-Sep-13 15:33N 54°11' E 012°06'0 0.0
2014-Sep-13 14:33N 54°11' E 012°06'0 0.0
2014-Sep-13 13:30N 54°11' E 012°06'0 0.0
2014-Sep-13 12:24N 54°11' E 012°06'0 0.0
2014-Sep-13 11:30N 54°11' E 012°06'0 0.0
2014-Sep-13 10:30N 54°11' E 012°06'0 0.0
2014-Sep-13 09:09N 54°11' E 012°06'0 0.0
2014-Sep-13 08:33N 54°11' E 012°06'0 0.0
2014-Sep-13 07:12N 54°11' E 012°06'0 0.0
2014-Sep-13 06:30N 54°11' E 012°06'0 0.0
2014-Sep-13 05:30N 54°11' E 012°06'0 0.2
2014-Sep-13 04:33N 54°10' E 012°06'5 4.7
2014-Sep-13 03:33N 54°15' E 012°02'1110.8
2014-Sep-13 02:34N 54°25' E 011°59'9 8.9
2014-Sep-13 01:33N 54°30' E 012°12'9 9.2
2014-Sep-13 00:33N 54°38' E 012°19'10 9.9
2014-Sep-12 23:33N 54°44' E 012°33'9 9.0
2014-Sep-12 22:33N 54°48' E 012°47'9 9.0
2014-Sep-12 21:33N 54°51' E 013°01'9 9.2
2014-Sep-12 20:31N 54°54' E 013°17'9 9.2
2014-Sep-12 19:33N 54°57' E 013°31'1312.7
2014-Sep-12 18:31N 55°02' E 013°53'1515.6
2014-Sep-12 17:33N 55°11' E 014°14'1816.1
2014-Sep-12 16:25N 55°25' E 014°35'1416.1
2014-Sep-12 15:33N 55°32' E 014°56'12615.7
2014-Sep-12 07:32N 57°07' E 017°25'1616.2
2014-Sep-12 06:32N 57°22' E 017°36'124 8.6
2014-Sep-11 16:11N 59°23' E 018°27'5 8.7
2014-Sep-11 15:33N 59°22' E 018°16'5 4.4
2014-Sep-11 14:31N 59°21' E 018°08'0 0.0
2014-Sep-11 13:31N 59°21' E 018°08'0 0.0
2014-Sep-11 12:33N 59°21' E 018°08'0 0.0
2014-Sep-11 11:33N 59°21' E 018°08'0 0.0
2014-Sep-11 10:33N 59°21' E 018°08'0 0.0
2014-Sep-11 09:32N 59°21' E 018°08'0 0.0
2014-Sep-11 08:31N 59°21' E 018°08'0 0.0
2014-Sep-11 07:32N 59°21' E 018°08'5 5.6
2014-Sep-11 06:33N 59°23' E 018°17'15012.4
2014-Sep-10 18:28N 59°36' E 023°12'1516.2
2014-Sep-10 17:33N 59°40' E 023°40'1716.4
2014-Sep-10 16:30N 59°45' E 024°13'1616.0
2014-Sep-10 15:29N 59°53' E 024°41'1413.1
2014-Sep-10 14:25N 60°06' E 024°54'4 0.5
2014-Sep-10 07:31N 60°09' E 024°55'0 0.0
2014-Sep-10 06:23N 60°09' E 024°55'0 0.0
2014-Sep-10 05:33N 60°09' E 024°55'5 4.6
2014-Sep-10 04:33N 60°05' E 024°54'5711.3
2014-Sep-09 23:30N 60°00' E 026°48'102 5.1
2014-Sep-09 03:33N 59°57' E 030°11'6811.4
2014-Sep-08 21:33N 60°10' E 027°57'1515.1
2014-Sep-08 20:33N 60°05' E 027°28'1615.7
2014-Sep-08 19:33N 59°58' E 027°00'1615.5
2014-Sep-08 18:34N 59°58' E 026°29'1616.3
2014-Sep-08 17:34N 59°53' E 025°58'1616.1
2014-Sep-08 16:34N 59°48' E 025°27'1815.7
2014-Sep-08 15:25N 59°43' E 024°53'1413.0
2014-Sep-08 14:21N 59°30' E 024°46'3 0.7
2014-Sep-08 10:29N 59°27' E 024°46'0 0.0
2014-Sep-08 07:20N 59°27' E 024°46'0 0.0
2014-Sep-08 05:30N 59°27' E 024°46'7 7.2
2014-Sep-08 04:33N 59°30' E 024°33'1515.3
2014-Sep-08 03:33N 59°30' E 024°03'1716.4
2014-Sep-08 02:33N 59°30' E 023°31'1616.2
2014-Sep-08 01:33N 59°28' E 022°59'1616.2
2014-Sep-08 00:33N 59°22' E 022°30'  
Track history (hours):
 
Tides and Currents Weather Stations Pressure Air Temp Water Temp Dewpoint Dewpoint Depression Visibility Wind Speed Wind Dir Waves Ship Positions

Aidamar

Last reported at 2014-Sep-17 22:08 UTC. Time now 2014-Sep-17 23:42 UTC.
Position N 59°33' E 021°13'.

Length 253 m; draft 7.3 m.

Type: Ship. MMSI: 247312900.

Date/timePositionNaut miles runAvg speedWind from/ knotsBaromVisibWave heightAir tempDewpointWater temp
2014-Sep-17 22:08N 59°33' E 021°13'916.1
2014-Sep-17 21:33N 59°31' E 021°31'8016.0
2014-Sep-17 16:33N 59°44' E 024°07'1716.3
2014-Sep-17 15:32N 59°52' E 024°37'1413.6
2014-Sep-17 14:28N 60°03' E 024°53'6 2.9
2014-Sep-17 12:32N 60°09' E 024°55'0 0.0
2014-Sep-17 11:28N 60°09' E 024°55'0 0.0
2014-Sep-17 10:31N 60°09' E 024°55'0 0.0
2014-Sep-17 07:08N 60°09' E 024°55'0 0.0
2014-Sep-17 05:33N 60°09' E 024°55'4 3.9
2014-Sep-17 04:34N 60°05' E 024°54'4410.7
2014-Sep-17 00:29N 59°59' E 026°20'2115.9
2014-Sep-16 23:08N 59°60' E 027°03'9113.9
2014-Sep-16 16:33N 59°56' E 030°05'3 0.3
2014-Sep-16 04:31N 59°57' E 030°12'0 0.0
2014-Sep-16 03:32N 59°57' E 030°11'8411.9
2014-Sep-15 20:28N 60°04' E 027°24'1515.2
2014-Sep-15 19:31N 59°59' E 026°58'1515.8
2014-Sep-15 18:34N 59°58' E 026°28'3216.2
2014-Sep-15 16:33N 59°48' E 025°26'1915.8
2014-Sep-15 15:23N 59°42' E 024°51'1113.1
2014-Sep-15 14:34N 59°32' E 024°44'5 2.5
2014-Sep-15 12:32N 59°27' E 024°46'0 0.0
2014-Sep-15 11:24N 59°27' E 024°46'0 0.0
2014-Sep-15 10:30N 59°27' E 024°46'0 0.0
2014-Sep-15 08:10N 59°27' E 024°46'0 0.0
2014-Sep-15 05:21N 59°27' E 024°46'7 8.2
2014-Sep-15 04:33N 59°30' E 024°34'1615.6
2014-Sep-15 03:32N 59°30' E 024°03'1616.2
2014-Sep-15 02:33N 59°30' E 023°32'1616.3
2014-Sep-15 01:33N 59°28' E 022°60'15815.8
2014-Sep-14 15:33N 57°31' E 019°38'3315.2
2014-Sep-14 13:21N 57°04' E 018°60'1315.3
2014-Sep-14 12:32N 56°54' E 018°46'3314.6
2014-Sep-14 10:15N 56°34' E 017°57'1314.6
2014-Sep-14 09:22N 56°26' E 017°39'1514.6
2014-Sep-14 08:20N 56°17' E 017°17'1814.6
2014-Sep-14 07:06N 56°06' E 016°52'1214.2
2014-Sep-14 06:16N 55°59' E 016°34'2714.3
2014-Sep-14 04:23N 55°46' E 015°53'1314.5
2014-Sep-14 03:30N 55°40' E 015°33'3214.3
2014-Sep-14 01:17N 55°25' E 014°43'5214.0
2014-Sep-13 21:33N 54°54' E 013°30'1414.6
2014-Sep-13 20:33N 54°49' E 013°06'1414.3
2014-Sep-13 19:33N 54°45' E 012°43'1414.0
2014-Sep-13 18:33N 54°37' E 012°23'1313.3
2014-Sep-13 17:33N 54°25' E 012°11'1212.5
2014-Sep-13 16:33N 54°13' E 012°05'3 2.6
2014-Sep-13 15:33N 54°11' E 012°06'0 0.0
2014-Sep-13 14:33N 54°11' E 012°06'0 0.0
2014-Sep-13 13:30N 54°11' E 012°06'0 0.0
2014-Sep-13 12:24N 54°11' E 012°06'0 0.0
2014-Sep-13 11:30N 54°11' E 012°06'0 0.0
2014-Sep-13 10:30N 54°11' E 012°06'0 0.0
2014-Sep-13 09:09N 54°11' E 012°06'0 0.0
2014-Sep-13 08:33N 54°11' E 012°06'0 0.0
2014-Sep-13 07:12N 54°11' E 012°06'0 0.0
2014-Sep-13 06:30N 54°11' E 012°06'0 0.0
2014-Sep-13 05:30N 54°11' E 012°06'0 0.2
2014-Sep-13 04:33N 54°10' E 012°06'5 4.7
2014-Sep-13 03:33N 54°15' E 012°02'1110.8
2014-Sep-13 02:34N 54°25' E 011°59'9 8.9
2014-Sep-13 01:33N 54°30' E 012°12'9 9.2
2014-Sep-13 00:33N 54°38' E 012°19'10 9.9
2014-Sep-12 23:33N 54°44' E 012°33'9 9.0
2014-Sep-12 22:33N 54°48' E 012°47'9 9.0
2014-Sep-12 21:33N 54°51' E 013°01'9 9.2
2014-Sep-12 20:31N 54°54' E 013°17'9 9.2
2014-Sep-12 19:33N 54°57' E 013°31'1312.7
2014-Sep-12 18:31N 55°02' E 013°53'1515.6
2014-Sep-12 17:33N 55°11' E 014°14'1816.1
2014-Sep-12 16:25N 55°25' E 014°35'1416.1
2014-Sep-12 15:33N 55°32' E 014°56'12615.7
2014-Sep-12 07:32N 57°07' E 017°25'1616.2
2014-Sep-12 06:32N 57°22' E 017°36'124 8.6
2014-Sep-11 16:11N 59°23' E 018°27'5 8.7
2014-Sep-11 15:33N 59°22' E 018°16'5 4.4
2014-Sep-11 14:31N 59°21' E 018°08'0 0.0
2014-Sep-11 13:31N 59°21' E 018°08'0 0.0
2014-Sep-11 12:33N 59°21' E 018°08'0 0.0
2014-Sep-11 11:33N 59°21' E 018°08'0 0.0
2014-Sep-11 10:33N 59°21' E 018°08'0 0.0
2014-Sep-11 09:32N 59°21' E 018°08'0 0.0
2014-Sep-11 08:31N 59°21' E 018°08'0 0.0
2014-Sep-11 07:32N 59°21' E 018°08'5 5.6
2014-Sep-11 06:33N 59°23' E 018°17'15012.4
2014-Sep-10 18:28N 59°36' E 023°12'1516.2
2014-Sep-10 17:33N 59°40' E 023°40'1716.4
2014-Sep-10 16:30N 59°45' E 024°13'1616.0
2014-Sep-10 15:29N 59°53' E 024°41'1413.1
2014-Sep-10 14:25N 60°06' E 024°54'4 0.5
2014-Sep-10 07:31N 60°09' E 024°55'0 0.0
2014-Sep-10 06:23N 60°09' E 024°55'0 0.0
2014-Sep-10 05:33N 60°09' E 024°55'5 4.6
2014-Sep-10 04:33N 60°05' E 024°54'5711.3
2014-Sep-09 23:30N 60°00' E 026°48'102 5.1
2014-Sep-09 03:33N 59°57' E 030°11'6811.4
2014-Sep-08 21:33N 60°10' E 027°57'1515.1
2014-Sep-08 20:33N 60°05' E 027°28'1615.7
2014-Sep-08 19:33N 59°58' E 027°00'1615.5
2014-Sep-08 18:34N 59°58' E 026°29'1616.3
2014-Sep-08 17:34N 59°53' E 025°58'1616.1
2014-Sep-08 16:34N 59°48' E 025°27'1815.7
2014-Sep-08 15:25N 59°43' E 024°53'1413.0
2014-Sep-08 14:21N 59°30' E 024°46'3 0.7
2014-Sep-08 10:29N 59°27' E 024°46'0 0.0
2014-Sep-08 07:20N 59°27' E 024°46'0 0.0
2014-Sep-08 05:30N 59°27' E 024°46'7 7.2
2014-Sep-08 04:33N 59°30' E 024°33'1515.3
2014-Sep-08 03:33N 59°30' E 024°03'1716.4
2014-Sep-08 02:33N 59°30' E 023°31'1616.2
2014-Sep-08 01:33N 59°28' E 022°59'1616.2
2014-Sep-08 00:33N 59°22' E 022°30'  

Dump ship's entire track history